Time;durP1;ratioP1;P1;durP2;ratioP2;P2;SDS_P1;SDS_P2;PMS_P1;PMS_P2;Temp;Humidity;BMP_temperature;BMP_pressure;BME280_temperature;BME280_humidity;BME280_pressure;Samples;Min_cycle;Max_cycle;Signal;HPM_P1;HPM_P2
2022/05/27 00:00:26;;;;;;;17.60;4.40;;;14.10;99.90;;;;;;5123752;27;20529;-81
2022/05/27 00:02:52;;;;;;;19.17;5.45;;;14.10;99.90;;;;;;5103498;27;20042;-82
2022/05/27 00:05:19;;;;;;;24.15;5.30;;;14.10;99.90;;;;;;5119879;27;20043;-81
2022/05/27 00:07:44;;;;;;;22.83;5.30;;;14.10;99.90;;;;;;5137563;27;20050;-81
2022/05/27 00:10:12;;;;;;;29.40;5.47;;;14.00;99.90;;;;;;5122931;27;20401;-82
2022/05/27 00:12:38;;;;;;;16.80;5.20;;;14.10;99.90;;;;;;5106490;27;20044;-81
2022/05/27 00:15:05;;;;;;;23.02;5.63;;;14.00;99.90;;;;;;5120400;27;20403;-80
2022/05/27 00:17:31;;;;;;;19.73;5.30;;;13.80;99.90;;;;;;5118549;27;20047;-80
2022/05/27 00:19:56;;;;;;;26.35;5.78;;;14.00;99.90;;;;;;5103655;27;20131;-81
2022/05/27 00:22:22;;;;;;;15.68;4.65;;;14.00;99.90;;;;;;5141863;27;20039;-81
2022/05/27 00:24:51;;;;;;;25.05;4.85;;;13.90;99.90;;;;;;5121379;27;20103;-81
2022/05/27 00:27:16;;;;;;;17.33;4.40;;;13.80;99.90;;;;;;5119319;27;20494;-81
2022/05/27 00:29:42;;;;;;;21.27;4.65;;;13.80;99.90;;;;;;5119124;27;20050;-81
2022/05/27 00:32:07;;;;;;;21.83;4.63;;;13.90;99.90;;;;;;5105328;27;20042;-81
2022/05/27 00:34:33;;;;;;;21.73;5.05;;;13.90;99.90;;;;;;5106215;27;20520;-81
2022/05/27 00:37:03;;;;;;;17.90;4.68;;;13.80;99.90;;;;;;5138696;27;20059;-81
2022/05/27 00:39:28;;;;;;;25.92;4.28;;;13.80;99.90;;;;;;5137605;27;20043;-81
2022/05/27 00:41:54;;;;;;;21.63;4.53;;;14.00;99.90;;;;;;5138915;27;20055;-81
2022/05/27 00:44:19;;;;;;;26.90;4.15;;;13.80;99.90;;;;;;5141726;27;20037;-82
2022/05/27 00:46:45;;;;;;;19.17;4.20;;;13.70;99.90;;;;;;5121308;27;20467;-82
2022/05/27 00:49:20;;;;;;;18.13;3.75;;;13.70;99.90;;;;;;5137909;27;20047;-83
2022/05/27 00:52:06;;;;;;;14.68;3.22;;;13.70;99.90;;;;;;5137528;27;20051;-82
2022/05/27 00:54:33;;;;;;;19.83;4.13;;;13.60;99.90;;;;;;5105457;27;20078;-81
2022/05/27 00:57:05;;;;;;;18.33;3.60;;;13.60;99.90;;;;;;5086392;27;20095;-82
2022/05/27 00:59:43;;;;;;;14.07;3.47;;;13.50;99.90;;;;;;5137435;27;20050;-82
2022/05/27 01:02:11;;;;;;;20.60;3.83;;;13.40;99.90;;;;;;5140935;27;20039;-82
2022/05/27 01:04:38;;;;;;;17.85;3.30;;;13.40;99.90;;;;;;5105397;27;20567;-82
2022/05/27 01:07:05;;;;;;;10.32;2.50;;;13.40;99.90;;;;;;5138128;27;20060;-82
2022/05/27 01:09:34;;;;;;;17.17;2.92;;;13.40;99.90;;;;;;5119435;28;20046;-81
2022/05/27 01:12:27;;;;;;;14.63;2.80;;;13.30;99.90;;;;;;5120458;27;20087;-81
2022/05/27 01:15:28;;;;;;;15.63;3.08;;;13.30;99.90;;;;;;5120475;27;20046;-81
2022/05/27 01:18:05;;;;;;;13.23;2.33;;;13.30;99.90;;;;;;5120085;27;20043;-81
2022/05/27 01:20:31;;;;;;;21.20;3.38;;;13.20;99.90;;;;;;5122161;27;20057;-82
2022/05/27 01:23:44;;;;;;;23.05;3.80;;;13.10;99.90;;;;;;5120557;27;20529;-82
2022/05/27 01:26:48;;;;;;;17.23;3.40;;;13.20;99.90;;;;;;5104462;27;20035;-81
2022/05/27 01:29:42;;;;;;;12.50;2.75;;;13.20;99.90;;;;;;5047497;28;20049;-81
2022/05/27 01:32:17;;;;;;;14.45;2.95;;;13.90;99.90;;;;;;5049112;28;20060;-81
2022/05/27 01:34:42;;;;;;;;;;;13.00;99.90;;;;;;5115514;27;20129;-81
2022/05/27 01:37:20;;;;;;;15.75;2.67;;;13.00;99.90;;;;;;5123688;27;20010;-82
2022/05/27 01:39:52;;;;;;;16.52;2.78;;;14.30;99.90;;;;;;5102687;27;20073;-82
2022/05/27 01:43:02;;;;;;;16.58;3.50;;;12.90;99.90;;;;;;5122135;27;20122;-82
2022/05/27 01:45:36;;;;;;;15.07;3.25;;;12.90;99.90;;;;;;5025278;27;20132;-81
2022/05/27 01:48:05;;;;;;;;;;;12.90;99.90;;;;;;5142738;27;20082;-81
2022/05/27 01:50:37;;;;;;;21.75;3.63;;;12.80;99.90;;;;;;5143724;27;19919;-81
2022/05/27 01:53:11;;;;;;;15.45;3.42;;;12.80;99.90;;;;;;5123692;27;20042;-81
2022/05/27 01:55:49;;;;;;;19.50;2.58;;;12.70;99.90;;;;;;5104529;27;20039;-80
2022/05/27 01:58:21;;;;;;;17.98;3.17;;;12.80;99.90;;;;;;5144159;27;20065;-81
2022/05/27 02:00:48;;;;;;;13.57;3.10;;;12.70;99.90;;;;;;5143987;27;20390;-82
2022/05/27 02:03:29;;;;;;;14.77;2.90;;;12.60;99.90;;;;;;5140220;27;20050;-82
2022/05/27 02:06:05;;;;;;;15.18;2.88;;;12.60;99.90;;;;;;5140581;27;20057;-82
2022/05/27 02:08:36;;;;;;;22.60;3.20;;;12.50;99.90;;;;;;5144288;27;20066;-82
2022/05/27 02:11:08;;;;;;;11.70;2.53;;;12.50;99.90;;;;;;5123321;27;20038;-82
2022/05/27 02:13:38;;;;;;;17.67;4.05;;;12.50;99.90;;;;;;5122371;27;20118;-81
2022/05/27 02:16:06;;;;;;;16.15;3.35;;;13.00;99.90;;;;;;5123501;27;20057;-81
2022/05/27 02:18:46;;;;;;;9.38;2.95;;;13.50;99.90;;;;;;5124868;27;20034;-81
2022/05/27 02:21:22;;;;;;;17.05;2.75;;;12.40;99.90;;;;;;5105888;27;20096;-81
2022/05/27 02:23:55;;;;;;;10.75;2.00;;;12.30;99.90;;;;;;5120706;27;20047;-81
2022/05/27 02:26:26;;;;;;;14.52;1.92;;;12.30;99.90;;;;;;5104304;27;20142;-81
2022/05/27 02:28:59;;;;;;;15.30;2.50;;;12.30;99.90;;;;;;5121660;27;20216;-82
2022/05/27 02:31:28;;;;;;;13.85;2.47;;;12.20;99.90;;;;;;5140017;27;20086;-81
2022/05/27 02:36:55;;;;;;;10.93;2.25;;;12.20;99.90;;;;;;5127214;27;20043;-81
2022/05/27 02:39:21;;;;;;;14.70;3.35;;;12.20;99.90;;;;;;5120641;27;20043;-81
2022/05/27 02:42:26;;;;;;;12.27;2.70;;;12.10;99.90;;;;;;5120652;27;20043;-81
2022/05/27 02:45:17;;;;;;;;;;;12.10;99.90;;;;;;5120465;27;20456;-81
2022/05/27 02:47:57;;;;;;;14.43;2.72;;;12.00;99.90;;;;;;5139267;27;19919;-82
2022/05/27 02:50:39;;;;;;;15.23;2.78;;;12.00;99.90;;;;;;5121560;27;20039;-82
2022/05/27 02:53:30;;;;;;;16.02;2.80;;;12.00;99.90;;;;;;5105301;27;20047;-81
2022/05/27 02:56:04;;;;;;;14.00;2.75;;;12.00;99.90;;;;;;5124101;27;20043;-82
2022/05/27 02:58:33;;;;;;;10.27;2.33;;;11.70;99.90;;;;;;5122053;27;20039;-82
2022/05/27 03:00:59;;;;;;;12.85;2.40;;;11.90;99.90;;;;;;5139439;27;20047;-82
2022/05/27 03:03:25;;;;;;;14.95;2.75;;;11.80;99.90;;;;;;5124595;27;20042;-81
2022/05/27 03:06:02;;;;;;;10.90;2.72;;;11.80;99.90;;;;;;5141610;27;20050;-81
2022/05/27 03:08:30;;;;;;;9.88;2.17;;;11.80;99.90;;;;;;5103908;27;20242;-81
2022/05/27 03:11:15;;;;;;;12.80;2.90;;;11.80;99.90;;;;;;5120340;27;20411;-81
2022/05/27 03:14:12;;;;;;;14.18;2.97;;;11.80;99.90;;;;;;5119804;27;20093;-81
2022/05/27 03:16:51;;;;;;;10.57;3.05;;;11.70;99.90;;;;;;5120405;27;20126;-81
2022/05/27 03:19:37;;;;;;;14.25;2.88;;;12.40;99.90;;;;;;5106274;27;20494;-82
2022/05/27 03:22:21;;;;;;;15.90;2.67;;;11.60;99.90;;;;;;5105381;27;20049;-82
2022/05/27 03:25:32;;;;;;;18.77;3.05;;;11.70;99.90;;;;;;5139085;27;20044;-81
2022/05/27 03:27:58;;;;;;;15.48;2.95;;;11.60;99.90;;;;;;5031886;28;20048;-82
2022/05/27 03:30:37;;;;;;;12.00;2.78;;;11.60;99.90;;;;;;5041741;28;20403;-82
2022/05/27 03:33:06;;;;;;;16.65;2.92;;;11.70;99.90;;;;;;5086910;27;20478;-81
2022/05/27 03:35:50;;;;;;;13.18;2.95;;;11.70;99.90;;;;;;5103040;27;20087;-82
2022/05/27 03:38:26;;;;;;;18.98;2.80;;;11.60;99.90;;;;;;5122972;27;20051;-81
2022/05/27 03:41:04;;;;;;;12.02;2.67;;;11.60;99.90;;;;;;5123151;27;20087;-82
2022/05/27 03:43:33;;;;;;;20.77;5.05;;;11.60;99.90;;;;;;5124341;27;20386;-81
2022/05/27 03:46:00;;;;;;;14.32;2.33;;;11.50;99.90;;;;;;5122892;27;20054;-82
2022/05/27 03:48:29;;;;;;;16.50;2.45;;;11.50;99.90;;;;;;5138247;27;20041;-82
2022/05/27 03:51:04;;;;;;;17.58;2.58;;;11.50;99.90;;;;;;5119166;27;20050;-82
2022/05/27 03:56:14;;;;;;;13.90;2.70;;;11.50;99.90;;;;;;5139800;27;20104;-82
2022/05/27 03:58:39;;;;;;;12.65;2.92;;;11.50;99.90;;;;;;5123352;27;20046;-82
2022/05/27 04:01:06;;;;;;;15.30;2.80;;;11.50;99.90;;;;;;5106112;27;20039;-81
2022/05/27 04:03:31;;;;;;;16.50;2.45;;;11.50;99.90;;;;;;5119540;27;20122;-81
2022/05/27 04:05:57;;;;;;;16.10;2.60;;;11.50;99.90;;;;;;5102351;27;20491;-81
2022/05/27 04:08:22;;;;;;;15.63;3.28;;;11.50;99.90;;;;;;5123182;27;20070;-82
2022/05/27 04:10:48;;;;;;;15.63;3.60;;;11.50;99.90;;;;;;5122351;27;20486;-82
2022/05/27 04:13:14;;;;;;;14.50;2.90;;;11.50;99.90;;;;;;5107013;27;20058;-83
2022/05/27 04:15:39;;;;;;;21.13;3.92;;;13.10;99.90;;;;;;5122957;27;20133;-82
2022/05/27 04:18:05;;;;;;;14.07;2.90;;;11.60;99.90;;;;;;5123158;27;20043;-81
2022/05/27 04:20:30;;;;;;;16.40;3.38;;;11.60;99.90;;;;;;5138786;27;20031;-82
2022/05/27 04:22:56;;;;;;;10.57;2.67;;;11.60;99.90;;;;;;5137909;27;20457;-82
2022/05/27 04:25:22;;;;;;;17.85;2.17;;;11.60;99.90;;;;;;5139992;27;20448;-82
2022/05/27 04:27:48;;;;;;;17.27;2.88;;;11.70;99.90;;;;;;5122784;27;20050;-82
2022/05/27 04:30:14;;;;;;;16.05;3.15;;;11.70;99.90;;;;;;5121564;27;20043;-83
2022/05/27 04:32:40;;;;;;;22.98;4.03;;;11.70;99.90;;;;;;5102275;27;20046;-82
2022/05/27 04:35:08;;;;;;;18.95;3.22;;;11.70;99.90;;;;;;5138724;27;20061;-83
2022/05/27 04:37:34;;;;;;;18.40;3.30;;;11.70;99.90;;;;;;5085271;27;20134;-83
2022/05/27 04:40:00;;;;;;;16.05;2.90;;;11.80;99.90;;;;;;5120426;27;20043;-81
2022/05/27 04:42:26;;;;;;;26.60;3.95;;;11.70;99.90;;;;;;5142158;27;20050;-83
2022/05/27 04:44:52;;;;;;;17.67;3.28;;;11.80;99.90;;;;;;5104864;27;20043;-81
2022/05/27 04:47:18;;;;;;;17.35;2.85;;;11.80;99.90;;;;;;5087376;27;20437;-81
2022/05/27 04:49:56;;;;;;;17.45;3.10;;;11.80;99.90;;;;;;5119067;28;20051;-81
2022/05/27 04:52:25;;;;;;;16.40;3.13;;;11.80;99.90;;;;;;5120932;27;20038;-81
2022/05/27 04:54:52;;;;;;;16.50;3.75;;;11.80;99.90;;;;;;5122643;27;20313;-82
2022/05/27 04:57:24;;;;;;;17.48;2.70;;;11.80;99.90;;;;;;5121572;27;20039;-81
2022/05/27 04:59:50;;;;;;;19.88;3.47;;;11.80;99.90;;;;;;5118232;28;20070;-81
2022/05/27 05:02:21;;;;;;;13.82;2.67;;;11.80;99.90;;;;;;5121739;27;20499;-81
2022/05/27 05:04:50;;;;;;;13.32;2.88;;;11.80;99.90;;;;;;5145516;27;20202;-81
2022/05/27 05:07:21;;;;;;;19.08;3.35;;;11.80;99.90;;;;;;5108219;27;20091;-82
2022/05/27 05:09:47;;;;;;;16.27;2.55;;;11.80;99.90;;;;;;5141557;27;20478;-81
2022/05/27 05:12:13;;;;;;;17.20;2.72;;;11.70;99.90;;;;;;5123557;27;20050;-83
2022/05/27 05:14:40;;;;;;;16.95;2.72;;;11.70;99.90;;;;;;5126524;27;20078;-82
2022/05/27 05:17:07;;;;;;;13.68;2.47;;;11.70;99.90;;;;;;5145454;27;20038;-82
2022/05/27 05:19:32;;;;;;;15.45;2.88;;;11.70;99.90;;;;;;5106492;27;20091;-82
2022/05/27 05:21:58;;;;;;;12.23;2.08;;;11.70;99.90;;;;;;5105797;27;20455;-82
2022/05/27 05:24:24;;;;;;;17.67;4.40;;;11.70;99.90;;;;;;5143527;27;20058;-82
2022/05/27 05:26:50;;;;;;;19.33;7.50;;;11.70;99.90;;;;;;5108185;27;20074;-83
2022/05/27 05:29:16;;;;;;;23.17;4.00;;;11.70;99.90;;;;;;5126450;27;20038;-83
2022/05/27 05:31:42;;;;;;;13.48;2.55;;;11.70;99.90;;;;;;5122520;27;20047;-83
2022/05/27 05:34:07;;;;;;;12.65;2.60;;;11.70;99.90;;;;;;5122074;27;20111;-83
2022/05/27 05:36:34;;;;;;;15.25;2.85;;;11.70;99.90;;;;;;5125568;27;20118;-83
2022/05/27 05:39:01;;;;;;;16.70;3.10;;;11.70;99.90;;;;;;5144987;27;20043;-83
2022/05/27 05:41:30;;;;;;;12.77;2.92;;;11.80;99.90;;;;;;5124278;27;20311;-84
2022/05/27 05:43:56;;;;;;;12.10;3.10;;;11.80;99.90;;;;;;5105096;27;20042;-83
2022/05/27 05:46:23;;;;;;;14.30;3.10;;;11.80;99.90;;;;;;5123566;27;20131;-83
2022/05/27 05:48:49;;;;;;;16.00;3.47;;;11.90;99.90;;;;;;5108488;27;20038;-84
2022/05/27 05:51:16;;;;;;;13.45;2.80;;;11.90;99.90;;;;;;5126510;27;20125;-83
2022/05/27 05:53:41;;;;;;;17.48;2.75;;;11.90;99.90;;;;;;5141409;27;20031;-83
2022/05/27 05:56:07;;;;;;;13.88;3.28;;;12.00;99.90;;;;;;5105041;27;20508;-83
2022/05/27 05:58:33;;;;;;;16.92;3.75;;;12.10;99.90;;;;;;5090993;27;20498;-84
2022/05/27 06:00:58;;;;;;;8.80;2.50;;;12.10;99.90;;;;;;5144523;27;20070;-83
2022/05/27 06:03:24;;;;;;;16.38;3.92;;;12.10;99.90;;;;;;5124405;27;20490;-83
2022/05/27 06:05:51;;;;;;;15.90;3.28;;;12.20;99.90;;;;;;5140628;27;20070;-83
2022/05/27 06:08:18;;;;;;;16.63;2.97;;;12.10;99.90;;;;;;5122703;27;20039;-84
2022/05/27 06:10:47;;;;;;;18.50;2.92;;;12.20;99.90;;;;;;5121456;27;20039;-83
2022/05/27 06:13:14;;;;;;;11.27;2.83;;;12.10;99.90;;;;;;5088304;28;20047;-82
2022/05/27 06:15:39;;;;;;;13.45;2.30;;;12.20;99.90;;;;;;5106795;27;20042;-80
2022/05/27 06:18:06;;;;;;;20.30;3.55;;;12.30;99.90;;;;;;5144627;27;20038;-84
2022/05/27 06:20:33;;;;;;;13.27;3.38;;;12.30;99.90;;;;;;5107187;27;20031;-84
2022/05/27 06:22:59;;;;;;;24.20;3.78;;;12.30;99.90;;;;;;5139748;27;20558;-85
2022/05/27 06:25:24;;;;;;;15.43;3.45;;;12.40;99.90;;;;;;5106051;27;20047;-82
2022/05/27 06:34:23;;;;;;;13.30;2.45;;;12.30;99.90;;;;;;5126165;27;20058;-81
2022/05/27 06:36:08;;;;;;;13.20;3.05;;;12.40;99.90;;;;;;5125274;27;20096;-83
2022/05/27 06:38:37;;;;;;;19.75;3.75;;;12.40;99.90;;;;;;5105912;27;20074;-82
2022/05/27 06:41:03;;;;;;;12.55;2.20;;;12.50;99.90;;;;;;5110515;27;20371;-82
2022/05/27 06:43:28;;;;;;;17.42;2.78;;;12.50;99.90;;;;;;5143146;27;20473;-82
2022/05/27 06:45:54;;;;;;;14.88;2.17;;;12.50;99.90;;;;;;5138950;27;20397;-84
2022/05/27 06:48:20;;;;;;;19.50;3.47;;;12.50;99.90;;;;;;5122018;27;20043;-84
2022/05/27 06:50:45;;;;;;;15.93;2.95;;;12.50;99.90;;;;;;5123802;27;20488;-84
2022/05/27 06:53:11;;;;;;;15.70;2.78;;;12.50;99.90;;;;;;5125542;27;20069;-85
2022/05/27 06:55:37;;;;;;;18.63;2.75;;;12.40;99.90;;;;;;5122523;27;20098;-83
2022/05/27 06:58:03;;;;;;;13.13;2.40;;;12.40;99.90;;;;;;5125541;27;20355;-82
2022/05/27 07:00:28;;;;;;;18.02;2.90;;;12.40;99.90;;;;;;5132321;27;20050;-84
2022/05/27 07:02:54;;;;;;;11.48;2.28;;;12.50;99.90;;;;;;5150365;27;20123;-83
2022/05/27 07:05:20;;;;;;;16.98;3.22;;;12.60;99.90;;;;;;5131717;27;20038;-85
2022/05/27 07:07:45;;;;;;;12.32;3.47;;;12.70;99.90;;;;;;5131906;27;20031;-79
2022/05/27 07:10:11;;;;;;;10.40;2.90;;;12.70;99.90;;;;;;5125351;27;20497;-74
2022/05/27 07:12:39;;;;;;;14.80;2.72;;;14.40;99.90;;;;;;5142410;27;20703;-82
2022/05/27 07:15:04;;;;;;;13.43;2.40;;;12.80;99.90;;;;;;5143583;27;20041;-82
2022/05/27 07:17:30;;;;;;;16.30;2.38;;;12.80;99.90;;;;;;5106846;27;20035;-85
2022/05/27 07:19:56;;;;;;;11.63;2.33;;;12.80;99.90;;;;;;5138843;27;20039;-75
2022/05/27 07:22:21;;;;;;;12.48;2.47;;;12.80;99.90;;;;;;5104106;27;20367;-87
2022/05/27 07:24:47;;;;;;;12.02;2.72;;;12.90;99.90;;;;;;5131192;27;20099;-86
2022/05/27 07:27:12;;;;;;;13.05;2.03;;;12.90;99.90;;;;;;5132552;27;20043;-83
2022/05/27 07:29:38;;;;;;;12.55;2.13;;;13.00;99.90;;;;;;5140937;27;20067;-86
2022/05/27 07:32:04;;;;;;;17.85;3.65;;;13.00;99.90;;;;;;5143247;27;20035;-82
2022/05/27 07:34:30;;;;;;;14.52;2.63;;;13.00;99.90;;;;;;5142476;27;20051;-87
2022/05/27 07:36:56;;;;;;;15.95;3.03;;;14.00;99.90;;;;;;5132045;27;20031;-86
2022/05/27 07:39:21;;;;;;;12.20;2.60;;;13.10;99.90;;;;;;5107298;27;20037;-79
2022/05/27 07:41:47;;;;;;;13.27;2.28;;;14.30;99.90;;;;;;5106377;27;20127;-79
2022/05/27 07:44:13;;;;;;;14.60;2.63;;;13.10;99.90;;;;;;5143604;27;20520;-79
2022/05/27 07:46:39;;;;;;;12.48;2.58;;;14.80;99.90;;;;;;5148906;27;20066;-77
2022/05/27 07:49:05;;;;;;;12.30;2.80;;;13.00;99.90;;;;;;5130581;27;20669;-78
2022/05/27 07:51:31;;;;;;;15.52;2.70;;;14.40;99.90;;;;;;5131167;27;20039;-75
2022/05/27 07:53:57;;;;;;;16.35;2.92;;;12.90;99.90;;;;;;5113225;27;20065;-77
2022/05/27 07:56:22;;;;;;;12.43;2.58;;;13.20;99.90;;;;;;5113699;27;20042;-77
2022/05/27 07:58:48;;;;;;;18.30;2.97;;;13.30;99.90;;;;;;5114345;27;20037;-78
2022/05/27 08:01:14;;;;;;;13.73;2.15;;;15.10;99.90;;;;;;5130410;27;20039;-78
2022/05/27 08:03:41;;;;;;;15.57;3.00;;;13.30;99.90;;;;;;5129508;27;20117;-79
2022/05/27 08:06:08;;;;;;;11.90;3.25;;;13.30;99.90;;;;;;5131116;27;20159;-80
2022/05/27 08:08:33;;;;;;;14.40;2.53;;;14.20;99.90;;;;;;5112856;27;20028;-79
2022/05/27 08:10:59;;;;;;;10.40;3.17;;;13.10;99.90;;;;;;5131336;27;20089;-88
2022/05/27 08:13:26;;;;;;;10.13;2.80;;;14.50;99.90;;;;;;5115457;27;20037;-87
2022/05/27 08:15:52;;;;;;;14.98;2.88;;;14.60;99.90;;;;;;5118204;27;20043;-84
2022/05/27 08:18:19;;;;;;;13.35;3.30;;;13.20;99.90;;;;;;5118333;27;20073;-86
2022/05/27 08:20:45;;;;;;;14.32;2.45;;;14.00;99.90;;;;;;4742586;27;10000149;-88
2022/05/27 08:23:10;;;;;;;9.45;2.47;;;13.20;99.90;;;;;;5129313;27;20327;-88
2022/05/27 08:25:37;;;;;;;17.60;3.60;;;13.30;99.90;;;;;;5086933;27;20043;-79
2022/05/27 08:28:03;;;;;;;14.73;3.20;;;15.20;99.90;;;;;;5126656;27;20080;-84
2022/05/27 08:30:33;;;;;;;17.40;2.85;;;13.40;99.90;;;;;;5124796;27;20080;-78
2022/05/27 08:33:00;;;;;;;14.68;2.58;;;14.50;99.90;;;;;;5147211;27;20103;-84
2022/05/27 08:38:28;;;;;;;11.27;2.88;;;13.40;99.90;;;;;;5147200;27;20049;-87
2022/05/27 08:41:14;;;;;;;14.20;3.13;;;13.50;99.90;;;;;;5103960;27;20047;-77
2022/05/27 08:44:17;;;;;;;19.45;3.47;;;13.50;99.90;;;;;;5108086;27;20069;-84
2022/05/27 08:47:09;;;;;;;19.35;2.75;;;13.60;99.90;;;;;;5110562;27;20101;-83
2022/05/27 08:49:41;;;;;;;12.75;2.42;;;13.60;99.90;;;;;;5118309;27;20467;-88
2022/05/27 08:52:17;;;;;;;16.15;3.13;;;14.40;99.90;;;;;;5103648;28;20049;-88
2022/05/27 08:54:49;;;;;;;12.75;2.22;;;13.50;99.90;;;;;;5127311;27;20038;-86
2022/05/27 09:00:14;;;;;;;13.60;2.88;;;13.40;99.90;;;;;;5136384;27;20042;-95
2022/05/27 09:03:01;;;;;;;17.70;3.83;;;13.40;99.90;;;;;;5145379;27;20517;-83
2022/05/27 09:05:44;;;;;;;12.50;2.20;;;13.80;99.90;;;;;;5132241;27;20485;-75
2022/05/27 09:08:23;;;;;;;12.43;2.72;;;13.40;99.90;;;;;;5129293;27;20035;-85
2022/05/27 09:11:32;;;;;;;15.05;2.45;;;13.50;99.90;;;;;;5147554;27;20039;-76
2022/05/27 09:14:13;;;;;;;12.50;2.33;;;13.50;99.90;;;;;;5097344;27;20058;-85
2022/05/27 09:17:05;;;;;;;21.92;2.38;;;13.60;99.90;;;;;;5129120;27;20043;-76
2022/05/27 09:19:51;;;;;;;13.55;3.13;;;13.60;99.90;;;;;;5127693;27;20069;-86
2022/05/27 09:22:30;;;;;;;10.02;1.85;;;13.80;99.90;;;;;;5120548;28;20374;-86
2022/05/27 09:25:01;;;;;;;12.45;2.08;;;13.90;99.90;;;;;;5120212;28;20047;-91
2022/05/27 09:27:41;;;;;;;16.80;2.28;;;14.00;99.90;;;;;;5128300;27;20438;-83
2022/05/27 09:30:11;;;;;;;13.77;2.30;;;14.00;99.90;;;;;;5123760;27;20034;-89
2022/05/27 09:33:00;;;;;;;9.60;2.08;;;14.00;99.90;;;;;;5112110;27;20047;-86
2022/05/27 09:35:34;;;;;;;12.73;2.58;;;14.00;99.90;;;;;;5093292;27;20039;-85
2022/05/27 09:38:03;;;;;;;14.13;2.53;;;14.00;99.90;;;;;;5129366;27;20114;-86
2022/05/27 09:40:35;;;;;;;18.23;2.65;;;15.60;99.90;;;;;;5108124;28;20130;-80
2022/05/27 09:43:17;;;;;;;14.48;2.53;;;14.20;99.90;;;;;;5126955;27;20035;-83
2022/05/27 09:45:43;;;;;;;15.18;2.13;;;14.10;99.90;;;;;;5102562;28;20058;-89
2022/05/27 09:48:10;;;;;;;10.63;1.45;;;14.20;99.90;;;;;;5106463;27;20046;-89
2022/05/27 09:50:43;;;;;;;12.30;2.05;;;14.30;99.90;;;;;;5146214;27;20482;-93
2022/05/27 09:53:16;;;;;;;12.85;2.30;;;14.30;99.90;;;;;;5111662;27;20046;-89
2022/05/27 09:55:53;;;;;;;13.20;2.63;;;13.90;99.90;;;;;;5110431;27;20481;-92
2022/05/27 09:58:32;;;;;;;16.10;2.28;;;15.30;99.90;;;;;;5125673;27;20538;-87
2022/05/27 10:00:58;;;;;;;11.20;3.13;;;14.20;99.90;;;;;;5127441;27;20400;-94
2022/05/27 10:03:36;;;;;;;9.77;2.03;;;15.60;99.90;;;;;;5134037;27;20027;-86
2022/05/27 10:06:16;;;;;;;12.68;2.00;;;14.20;99.90;;;;;;5132639;27;20066;-91
2022/05/27 10:08:50;;;;;;;9.90;2.33;;;14.30;99.90;;;;;;5105543;27;20043;-85
2022/05/27 10:11:19;;;;;;;12.63;2.22;;;14.20;99.90;;;;;;5123310;27;20059;-82
2022/05/27 10:13:47;;;;;;;16.85;2.25;;;14.00;99.90;;;;;;5122702;27;20035;-77
2022/05/27 10:16:21;;;;;;;12.55;2.72;;;15.00;99.90;;;;;;5125066;27;20485;-75
2022/05/27 10:18:47;;;;;;;12.15;2.38;;;14.40;99.90;;;;;;5144428;27;20047;-93
2022/05/27 10:21:19;;;;;;;15.98;3.30;;;14.50;99.90;;;;;;5122932;27;20537;-87
2022/05/27 10:23:48;;;;;;;15.30;1.73;;;14.40;99.90;;;;;;5121137;27;20122;-79
2022/05/27 10:26:26;;;;;;;12.60;2.08;;;15.90;99.90;;;;;;5105582;27;20050;-80
2022/05/27 10:29:02;;;;;;;13.48;2.28;;;14.50;99.90;;;;;;5104686;27;20045;-81
2022/05/27 10:31:28;;;;;;;14.68;2.22;;;14.50;99.90;;;;;;5129976;27;20039;-87
2022/05/27 10:33:54;;;;;;;13.48;2.47;;;16.00;99.90;;;;;;5105113;27;20273;-80
2022/05/27 10:36:56;;;;;;;9.98;2.10;;;16.20;99.90;;;;;;5108005;27;20046;-87
2022/05/27 10:39:43;;;;;;;19.83;2.80;;;14.80;99.90;;;;;;5105463;27;20398;-86
2022/05/27 10:42:30;;;;;;;16.73;3.25;;;14.70;99.90;;;;;;5142846;27;20039;-78
2022/05/27 10:45:08;;;;;;;14.25;2.53;;;14.60;99.90;;;;;;5127268;27;22182;-92
2022/05/27 10:47:55;;;;;;;19.65;2.50;;;14.50;99.90;;;;;;5141047;27;20051;-88
2022/05/27 10:50:27;;;;;;;10.20;2.15;;;14.50;99.90;;;;;;5121650;27;20104;-78
2022/05/27 10:53:30;;;;;;;12.93;2.28;;;14.50;99.90;;;;;;5122063;27;20085;-78
2022/05/27 10:56:11;;;;;;;10.70;1.98;;;14.50;99.90;;;;;;5121200;27;20047;-81
2022/05/27 11:02:07;;;;;;;19.08;2.72;;;14.20;99.90;;;;;;5133564;27;20051;-89
2022/05/27 11:04:54;;;;;;;9.90;2.35;;;14.20;99.90;;;;;;5102549;27;20520;-92
2022/05/27 11:07:50;;;;;;;15.18;2.55;;;14.20;99.90;;;;;;5124584;27;20054;-85
2022/05/27 11:10:41;;;;;;;14.60;2.78;;;14.10;99.90;;;;;;5131397;27;20042;-85
2022/05/27 11:17:05;;;;;;;18.33;2.58;;;14.30;99.90;;;;;;5144302;27;20050;-87
2022/05/27 11:20:08;;;;;;;12.10;1.95;;;14.30;99.90;;;;;;5122000;27;20095;-88
2022/05/27 11:22:39;;;;;;;15.80;2.30;;;14.30;99.90;;;;;;5040575;27;20041;-90
2022/05/27 11:25:28;;;;;;;14.35;2.63;;;14.30;99.90;;;;;;5104780;27;20043;-87
2022/05/27 11:28:23;;;;;;;10.35;2.17;;;14.50;99.90;;;;;;5106421;27;20057;-77
2022/05/27 11:31:03;;;;;;;10.38;1.85;;;14.60;99.90;;;;;;5066717;27;20070;-76
2022/05/27 11:33:44;;;;;;;12.63;2.55;;;14.60;99.90;;;;;;5149630;27;20128;-79
2022/05/27 11:36:23;;;;;;;8.88;1.58;;;14.40;99.90;;;;;;5107029;27;20050;-77
2022/05/27 11:38:51;;;;;;;14.70;2.95;;;14.40;99.90;;;;;;5115284;27;20129;-80
2022/05/27 11:41:23;;;;;;;15.23;2.90;;;14.30;99.90;;;;;;5140231;27;20091;-82
2022/05/27 11:43:56;;;;;;;16.30;3.25;;;14.30;99.90;;;;;;5114381;27;20513;-76
2022/05/27 11:46:36;;;;;;;15.53;2.07;;;15.50;99.90;;;;;;5107519;27;20487;-79
2022/05/27 11:49:39;;;;;;;16.77;2.45;;;14.50;99.90;;;;;;5112589;27;20496;-81
2022/05/27 11:52:23;;;;;;;9.40;2.13;;;14.40;99.90;;;;;;5124340;27;20122;-85
2022/05/27 11:55:11;;;;;;;16.50;3.53;;;14.30;99.90;;;;;;5144866;27;20524;-90
2022/05/27 11:57:48;;;;;;;12.05;2.72;;;14.30;99.90;;;;;;5105961;27;20089;-76
2022/05/27 12:00:17;;;;;;;12.18;2.67;;;14.40;99.90;;;;;;5129557;27;20474;-76
2022/05/27 12:03:09;;;;;;;11.52;2.40;;;14.30;99.90;;;;;;5107334;27;20129;-83
2022/05/27 12:05:42;;;;;;;14.50;3.42;;;14.30;99.90;;;;;;5122087;27;20081;-79
2022/05/27 12:08:35;;;;;;;11.07;2.30;;;16.00;99.90;;;;;;5112672;27;20474;-78
2022/05/27 12:11:05;;;;;;;11.77;1.83;;;14.30;99.90;;;;;;5128965;27;20125;-80
2022/05/27 12:13:46;;;;;;;21.20;3.70;;;14.30;99.90;;;;;;5124907;27;20043;-83
2022/05/27 12:16:20;;;;;;;20.15;2.72;;;14.30;99.90;;;;;;5106106;27;20038;-84
2022/05/27 12:19:05;;;;;;;11.50;2.53;;;15.50;99.90;;;;;;5109590;27;20035;-87
2022/05/27 12:21:47;;;;;;;19.52;3.00;;;14.30;99.90;;;;;;5104143;27;20081;-91
2022/05/27 12:24:22;;;;;;;11.98;2.78;;;14.20;99.90;;;;;;5122002;27;20043;-77
2022/05/27 12:26:52;;;;;;;15.55;3.28;;;14.20;99.90;;;;;;5119922;27;20043;-80
2022/05/27 12:29:19;;;;;;;15.98;3.10;;;15.80;99.90;;;;;;5106027;27;20077;-85
2022/05/27 12:31:47;;;;;;;11.38;2.15;;;14.30;99.90;;;;;;5132151;27;20055;-77
2022/05/27 12:34:29;;;;;;;14.85;3.10;;;14.00;99.90;;;;;;5110530;27;20076;-86
2022/05/27 12:36:59;;;;;;;16.45;3.17;;;14.10;99.90;;;;;;5110676;27;20535;-86
2022/05/27 12:39:28;;;;;;;11.73;2.97;;;14.10;99.90;;;;;;5132615;27;20031;-85
2022/05/27 12:42:20;;;;;;;10.13;2.70;;;14.30;99.90;;;;;;5120935;27;20090;-80
2022/05/27 12:44:48;;;;;;;15.80;3.05;;;14.30;99.90;;;;;;5097860;27;20502;-86
2022/05/27 12:47:35;;;;;;;12.68;2.35;;;15.70;99.90;;;;;;5107018;27;20051;-89
2022/05/27 12:50:03;;;;;;;17.45;2.88;;;14.40;99.90;;;;;;5130643;27;20042;-86
2022/05/27 12:52:28;;;;;;;15.77;3.30;;;14.30;99.90;;;;;;5129045;27;20099;-88
2022/05/27 12:54:54;;;;;;;18.63;3.95;;;14.20;99.90;;;;;;5128348;27;20047;-87
2022/05/27 13:03:33;;;;;;;15.20;3.63;;;14.50;99.90;;;;;;5124461;27;20137;-90
2022/05/27 13:06:20;;;;;;;;;;;14.50;99.90;;;;;;5124450;27;20081;-91
2022/05/27 13:08:52;;;;;;;19.40;3.03;;;14.50;99.90;;;;;;5123667;28;19925;-84
2022/05/27 13:11:34;;;;;;;18.13;2.67;;;15.80;99.90;;;;;;5125034;27;20142;-86
2022/05/27 13:14:40;;;;;;;15.90;2.90;;;14.20;99.90;;;;;;5111844;27;20055;-81
2022/05/27 13:17:30;;;;;;;15.07;2.83;;;14.20;99.90;;;;;;5109884;27;20457;-89
2022/05/27 13:20:08;;;;;;;14.40;2.17;;;14.30;99.90;;;;;;5132893;27;20054;-94
2022/05/27 13:22:59;;;;;;;11.15;2.17;;;14.30;99.90;;;;;;5150538;27;20043;-86
2022/05/27 13:25:29;;;;;;;10.57;2.00;;;14.20;99.90;;;;;;5111327;27;20520;-77
2022/05/27 13:28:08;;;;;;;13.10;2.53;;;14.10;99.90;;;;;;5111258;27;20130;-92
2022/05/27 13:30:49;;;;;;;13.75;3.08;;;14.00;99.90;;;;;;5128179;27;20046;-83
2022/05/27 13:33:19;;;;;;;9.88;1.95;;;14.50;99.90;;;;;;5116979;27;20035;-91
2022/05/27 13:35:48;;;;;;;20.02;2.83;;;14.80;99.90;;;;;;5114606;27;20090;-86
2022/05/27 13:38:23;;;;;;;16.13;3.05;;;15.40;99.90;;;;;;5135057;27;20062;-84